Herreid, South Dakota
Current Conditions -  °F | °C
As of 7:52 AM on Monday 24 Nov 2014 (Local Time) from KMBG Reporting Station
Broken Clouds Broken Clouds  
Wind Chill:   Ceiling: 1500
Heat Index: 18°   Visibility: 10mi
Dew Point: 13°   Wind: 18mph
Humidity: 81%   Direction: 330°NNW
Pressure: 29.77"   Gusts: NA
Location:  45.83°N, 100.07°W
Report Text: KMBG 241352Z AUTO 33016KT 10SM BKN015 M08/M11 A2977 RMK AO2 SLP108 T10781106
Loading
Personal Weather Stations






























Interactive Weather Map New forecast layout! Learn more

10-Day Weather Forecast

Advertisements
Track Severe Weather on mobile